Rb Jordana — V7NB2 — position and weather

sailwx.info

Track history (hours):
 
Tides and Currents Weather Stations Pressure Air Temp Water Temp Dewpoint Dewpoint Depression Visibility Wind Speed Wind Dir Waves Ship Positions

Rb Jordana

Last reported at 2017-Dec-11 11:11 UTC. Time now 2017-Dec-14 00:12 UTC.
Position N 36°34' E 014°01'.

Length 229 m; draft 8.5 m.

Type: Cargo ship. MMSI: 538006431.

Date/timePositionNaut miles runAvg speedWind from/ knotsBaromVisibWave heightAir tempDewpointWater temp
2017-Dec-11 11:11N 36°34' E 014°01'210.8
2017-Dec-11 11:00N 36°34' E 014°03'510.6
2017-Dec-11 10:30N 36°32' E 014°09'510.5
2017-Dec-11 10:00N 36°31' E 014°16'510.3
2017-Dec-11 09:30N 36°29' E 014°22'510.7
2017-Dec-11 09:00N 36°28' E 014°28'611.2
2017-Dec-11 08:30N 36°26' E 014°35'712.7
2017-Dec-11 07:59N 36°25' E 014°43'42211.4
2017-Dec-09 19:00N 36°31' E 023°28'911.5
2017-Dec-09 18:15N 36°38' E 023°34'1012.1
2017-Dec-09 17:25N 36°46' E 023°41'512.0
2017-Dec-09 17:00N 36°50' E 023°45'611.5
2017-Dec-09 16:30N 36°54' E 023°49'611.3
2017-Dec-09 16:00N 36°59' E 023°54'611.2
2017-Dec-09 15:30N 37°03' E 023°58'611.3
2017-Dec-09 15:00N 37°08' E 024°01'510.9
2017-Dec-09 14:30N 37°13' E 024°05'611.2
2017-Dec-09 14:00N 37°17' E 024°09'611.1
2017-Dec-09 13:30N 37°22' E 024°13'611.0
2017-Dec-09 13:00N 37°26' E 024°17'611.1
2017-Dec-09 12:30N 37°31' E 024°21'611.5
2017-Dec-09 12:00N 37°35' E 024°26'611.7
2017-Dec-09 11:30N 37°41' E 024°29'611.4
2017-Dec-09 11:00N 37°46' E 024°31'612.1
2017-Dec-09 10:30N 37°52' E 024°33'612.2
2017-Dec-09 10:00N 37°58' E 024°36'2412.9
2017-Dec-09 08:07N 38°18' E 024°51'  
Track history (hours):
 
Tides and Currents Weather Stations Pressure Air Temp Water Temp Dewpoint Dewpoint Depression Visibility Wind Speed Wind Dir Waves Ship Positions

Rb Jordana

Last reported at 2017-Dec-11 11:11 UTC. Time now 2017-Dec-14 00:12 UTC.
Position N 36°34' E 014°01'.

Length 229 m; draft 8.5 m.

Type: Cargo ship. MMSI: 538006431.

Date/timePositionNaut miles runAvg speedWind from/ knotsBaromVisibWave heightAir tempDewpointWater temp
2017-Dec-11 11:11N 36°34' E 014°01'210.8
2017-Dec-11 11:00N 36°34' E 014°03'510.6
2017-Dec-11 10:30N 36°32' E 014°09'510.5
2017-Dec-11 10:00N 36°31' E 014°16'510.3
2017-Dec-11 09:30N 36°29' E 014°22'510.7
2017-Dec-11 09:00N 36°28' E 014°28'611.2
2017-Dec-11 08:30N 36°26' E 014°35'712.7
2017-Dec-11 07:59N 36°25' E 014°43'42211.4
2017-Dec-09 19:00N 36°31' E 023°28'911.5
2017-Dec-09 18:15N 36°38' E 023°34'1012.1
2017-Dec-09 17:25N 36°46' E 023°41'512.0
2017-Dec-09 17:00N 36°50' E 023°45'611.5
2017-Dec-09 16:30N 36°54' E 023°49'611.3
2017-Dec-09 16:00N 36°59' E 023°54'611.2
2017-Dec-09 15:30N 37°03' E 023°58'611.3
2017-Dec-09 15:00N 37°08' E 024°01'510.9
2017-Dec-09 14:30N 37°13' E 024°05'611.2
2017-Dec-09 14:00N 37°17' E 024°09'611.1
2017-Dec-09 13:30N 37°22' E 024°13'611.0
2017-Dec-09 13:00N 37°26' E 024°17'611.1
2017-Dec-09 12:30N 37°31' E 024°21'611.5
2017-Dec-09 12:00N 37°35' E 024°26'611.7
2017-Dec-09 11:30N 37°41' E 024°29'611.4
2017-Dec-09 11:00N 37°46' E 024°31'612.1
2017-Dec-09 10:30N 37°52' E 024°33'612.2
2017-Dec-09 10:00N 37°58' E 024°36'2412.9
2017-Dec-09 08:07N 38°18' E 024°51'  

Dump ship's entire track history